Time;durP1;ratioP1;P1;durP2;ratioP2;P2;SDS_P1;SDS_P2;PMS_P1;PMS_P2;Temp;Humidity;BMP_temperature;BMP_pressure;BME280_temperature;BME280_humidity;BME280_pressure;Samples;Min_cycle;Max_cycle;Signal;HPM_P1;HPM_P2
2021/10/11 00:01:14;;;;;;;5.83;5.22;;;;;;;9.21;97.60;94618.20;827681;71;32752;-78
2021/10/11 00:16:10;;;;;;;7.17;5.62;;;;;;;9.20;97.84;94602.77;834318;71;29897;-78
2021/10/11 00:31:15;;;;;;;6.40;5.75;;;;;;;9.18;98.12;94576.86;827035;71;32685;-79
2021/10/11 00:46:08;;;;;;;6.30;5.70;;;;;;;9.22;97.47;94565.31;828431;71;29587;-79
2021/10/11 01:01:15;;;;;;;6.08;5.47;;;;;;;9.25;96.94;94566.62;827679;71;32731;-78
2021/10/11 01:16:09;;;;;;;6.60;5.95;;;;;;;9.23;97.24;94546.72;828471;71;30718;-76
2021/10/11 01:31:10;;;;;;;5.40;4.90;;;;;;;9.19;97.58;94541.78;828387;71;30221;-77
2021/10/11 01:46:09;;;;;;;7.58;5.85;;;;;;;9.18;97.39;94545.44;828433;71;30378;-77
2021/10/11 02:01:16;;;;;;;5.58;5.00;;;;;;;9.28;95.95;94528.08;834694;71;33306;-76
2021/10/11 02:16:17;;;;;;;5.08;4.67;;;;;;;9.40;94.73;94523.23;834396;71;32876;-79
2021/10/11 02:31:10;;;;;;;5.05;4.60;;;;;;;9.38;95.99;94505.72;829007;71;30264;-79
2021/10/11 02:46:11;;;;;;;3.70;3.50;;;;;;;9.25;97.29;94512.95;828151;71;31634;-75
2021/10/11 03:16:09;;;;;;;3.55;3.35;;;;;;;9.18;98.04;94484.46;835086;71;30708;-77
2021/10/11 03:31:09;;;;;;;4.28;3.83;;;;;;;9.26;97.43;94475.22;834234;71;29766;-78
2021/10/11 03:46:22;;;;;;;3.40;3.20;;;;;;;9.10;100.00;94449.20;800612;74;33377;-77
2021/10/11 04:01:14;;;;;;;3.52;3.33;;;;;;;8.89;100.00;94440.03;827794;71;33083;-78
2021/10/11 04:16:10;;;;;;;3.87;3.60;;;;;;;8.76;100.00;94429.70;819248;70;29981;-81
2021/10/11 04:31:14;;;;;;;4.25;3.95;;;;;;;8.61;100.00;94426.16;827455;71;33170;-77
2021/10/11 04:46:10;;;;;;;3.37;3.17;;;;;;;8.67;100.00;94408.58;827863;71;30552;-75
2021/10/11 05:01:08;;;;;;;4.15;3.85;;;;;;;8.74;100.00;94408.25;828190;71;29469;-74
2021/10/11 05:16:15;;;;;;;4.40;4.10;;;;;;;8.76;100.00;94402.23;833682;71;32760;-75
2021/10/11 05:31:07;;;;;;;4.87;4.47;;;;;;;;;;834040;71;29667;-74
2021/10/11 05:46:16;;;;;;;4.50;4.10;;;;;;;8.90;100.00;94412.28;835026;71;32879;-77
2021/10/11 06:01:08;;;;;;;4.40;3.80;;;;;;;9.02;100.00;94424.45;828399;71;29531;-76
2021/10/11 06:16:08;;;;;;;3.95;3.20;;;;;;;9.21;100.00;94423.17;830069;71;29665;-77
2021/10/11 06:31:08;;;;;;;2.67;2.58;;;;;;;9.33;100.00;94424.08;829507;71;29325;-75
2021/10/11 06:46:08;;;;;;;3.72;3.42;;;;;;;9.33;100.00;94437.71;828258;71;29841;-74
2021/10/11 07:01:08;;;;;;;4.87;4.45;;;;;;;9.31;100.00;94413.11;833918;71;29739;-74
2021/10/11 07:16:14;;;;;;;2.90;2.70;;;;;;;9.41;100.00;94422.14;833874;71;32676;-75
2021/10/11 07:31:08;;;;;;;3.27;2.98;;;;;;;9.55;100.00;94399.17;828106;71;29379;-75
2021/10/11 07:46:09;;;;;;;2.85;2.65;;;;;;;9.74;100.00;94401.27;833918;71;30100;-77
2021/10/11 08:01:14;;;;;;;3.77;3.37;;;;;;;9.80;100.00;94393.58;827590;71;33238;-76
2021/10/11 08:16:10;;;;;;;4.20;3.80;;;;;;;9.81;100.00;94393.84;829697;71;29759;-73
2021/10/11 08:31:11;;;;;;;5.30;4.75;;;;;;;9.84;100.00;94380.70;828988;71;29882;-74
2021/10/11 08:46:09;;;;;;;8.43;7.03;;;;;;;10.00;100.00;94382.55;834219;71;29695;-75
2021/10/11 09:16:23;;;;;;;5.62;4.95;;;;;;;10.51;100.00;94384.89;833550;71;31693;-76
2021/10/11 09:31:14;;;;;;;5.03;4.53;;;;;;;10.69;100.00;94388.52;832717;71;31755;-76
2021/10/11 09:46:13;;;;;;;5.75;5.20;;;;;;;10.98;98.46;94377.72;833960;71;29906;-77
2021/10/11 10:01:08;;;;;;;5.92;5.35;;;;;;;11.10;97.31;94362.79;828284;71;28646;-75
2021/10/11 10:16:13;;;;;;;6.40;5.65;;;;;;;11.26;95.23;94361.95;828163;71;30726;-74
2021/10/11 10:31:31;;;;;;;6.75;6.03;;;;;;;11.26;95.26;94352.75;828258;71;31754;-77
2021/10/11 10:46:09;;;;;;;6.53;5.92;;;;;;;11.66;93.58;94329.27;827999;71;28676;-75
2021/10/11 11:01:09;;;;;;;6.08;5.47;;;;;;;11.82;91.77;94323.92;833879;71;28679;-75
2021/10/11 11:16:10;;;;;;;6.42;5.83;;;;;;;11.87;90.65;94308.02;828665;71;28501;-76
2021/10/11 11:31:11;;;;;;;6.75;6.10;;;;;;;12.01;89.15;94308.75;829029;71;29390;-77
2021/10/11 11:46:14;;;;;;;6.90;6.22;;;;;;;11.89;89.55;94295.38;827420;71;32339;-75
2021/10/11 12:01:27;;;;;;;7.50;6.80;;;;;;;12.08;88.70;94293.08;827384;71;31830;-76
2021/10/11 12:16:10;;;;;;;6.97;6.35;;;;;;;12.09;88.17;94265.72;828271;71;28323;-76
2021/10/11 12:31:12;;;;;;;7.22;6.50;;;;;;;12.09;87.67;94270.42;828090;71;31225;-75
2021/10/11 12:46:10;;;;;;;7.42;6.45;;;;;;;12.32;86.80;94260.61;828216;71;28562;-75
2021/10/11 13:01:09;;;;;;;6.95;6.10;;;;;;;12.23;86.78;94253.25;828153;71;28496;-75
2021/10/11 13:16:09;;;;;;;7.50;6.70;;;;;;;12.17;87.11;94234.19;834098;71;28857;-76
2021/10/11 14:31:15;;;;;;;6.20;5.55;;;;;;;11.99;88.34;94193.12;828129;71;28462;-75
2021/10/11 16:01:22;;;;;;;9.53;7.12;;;;;;;11.23;98.62;94165.81;833648;71;30201;-76
2021/10/11 16:16:54;;;;;;;11.30;7.92;;;;;;;11.05;99.40;94186.97;827229;71;31762;-78
2021/10/11 16:31:10;;;;;;;8.85;7.30;;;;;;;10.92;99.62;94177.53;828128;71;29618;-78
2021/10/11 16:46:16;;;;;;;8.40;7.37;;;;;;;10.75;99.68;94183.43;827558;71;32703;-77
2021/10/11 17:01:08;;;;;;;10.25;7.10;;;;;;;10.68;99.01;94198.02;830161;71;29384;-79
2021/10/11 17:16:12;;;;;;;9.10;6.42;;;;;;;10.63;98.78;94208.87;829653;71;31550;-79
2021/10/11 17:31:10;;;;;;;9.75;7.70;;;;;;;10.69;98.30;94206.92;835188;71;29582;-81
2021/10/11 17:46:11;;;;;;;10.15;7.05;;;;;;;10.77;97.71;94197.58;834399;71;29869;-79
2021/10/11 18:01:09;;;;;;;8.68;7.78;;;;;;;10.69;97.50;94212.71;828629;71;29684;-79
2021/10/11 18:16:11;;;;;;;17.35;13.05;;;;;;;10.76;97.39;94210.44;833949;71;29661;-79
2021/10/11 18:31:10;;;;;;;11.35;8.65;;;;;;;10.65;96.72;94199.39;828344;71;29655;-80
2021/10/11 18:46:09;;;;;;;9.95;8.23;;;;;;;10.65;96.57;94188.91;827716;71;30654;-78
2021/10/11 19:01:16;;;;;;;9.00;7.70;;;;;;;10.81;96.26;94205.87;814045;71;33348;-79
2021/10/11 19:16:08;;;;;;;8.40;7.28;;;;;;;10.85;95.55;94217.88;828222;71;29642;-75
2021/10/11 19:31:16;;;;;;;10.72;8.15;;;;;;;10.76;95.57;94196.78;827244;71;32651;-76
2021/10/11 19:46:14;;;;;;;9.00;8.10;;;;;;;10.80;96.41;94199.05;834094;71;32803;-75
2021/10/11 20:01:08;;;;;;;13.20;9.18;;;;;;;11.05;97.03;94197.47;828600;71;29648;-78
2021/10/11 20:16:09;;;;;;;10.38;8.60;;;;;;;11.01;96.19;94167.12;823481;71;28021;-77
2021/10/11 20:31:14;;;;;;;9.38;7.60;;;;;;;10.75;97.53;94154.56;833131;71;32686;-78
2021/10/11 20:46:10;;;;;;;9.93;7.62;;;;;;;10.60;99.33;94132.08;834394;71;29313;-76
2021/10/11 21:16:10;;;;;;;12.25;8.30;;;;;;;10.93;100.00;94173.06;834495;71;29410;-76
2021/10/11 21:31:14;;;;;;;6.75;6.03;;;;;;;10.81;100.00;94158.62;833067;71;33182;-77
2021/10/11 21:46:28;;;;;;;10.30;8.48;;;;;;;11.04;100.00;94150.77;833821;71;32899;-78
2021/10/11 22:01:15;;;;;;;8.88;7.95;;;;;;;11.21;100.00;94128.56;827464;71;33165;-78
2021/10/11 22:16:19;;;;;;;12.50;10.68;;;;;;;11.37;100.00;94109.23;827380;71;33046;-76
2021/10/11 22:31:09;;;;;;;20.68;14.95;;;;;;;11.40;99.55;94090.80;834921;71;30428;-78
2021/10/11 22:46:14;;;;;;;22.10;16.48;;;;;;;11.08;99.23;94060.37;827799;71;33567;-77
2021/10/11 23:01:08;;;;;;;19.20;13.90;;;;;;;10.58;100.00;94058.66;833975;71;29712;-77
2021/10/11 23:16:14;;;;;;;17.98;14.50;;;;;;;10.44;100.00;94074.44;827473;71;32746;-79
2021/10/11 23:31:09;;;;;;;22.60;16.50;;;;;;;10.69;100.00;94035.05;828099;71;30580;-75
2021/10/11 23:46:14;;;;;;;16.25;13.10;;;;;;;10.83;100.00;94028.42;834164;71;32790;-78
